createdAt,value
2023-05-16T00:01:58.043Z,17.60
2023-05-16T00:04:26.364Z,18.88
2023-05-16T00:06:53.342Z,16.55
2023-05-16T00:09:20.072Z,16.40
2023-05-16T00:11:48.245Z,16.70
2023-05-16T00:14:15.255Z,16.13
2023-05-16T00:16:42.319Z,18.30
2023-05-16T00:19:10.404Z,14.50
2023-05-16T00:21:37.298Z,17.60
2023-05-16T00:24:05.133Z,15.80
2023-05-16T00:26:31.945Z,16.50
2023-05-16T00:28:58.739Z,12.98
2023-05-16T00:31:25.681Z,20.92
2023-05-16T00:33:52.422Z,13.82
2023-05-16T00:36:19.194Z,14.85
2023-05-16T00:38:46.507Z,13.23
2023-05-16T00:41:13.756Z,17.20
2023-05-16T00:43:40.606Z,15.65
2023-05-16T00:46:07.394Z,21.00
2023-05-16T00:48:34.506Z,16.67
2023-05-16T00:51:02.161Z,16.70
2023-05-16T00:53:29.046Z,16.50
2023-05-16T00:55:56.455Z,16.50
2023-05-16T00:58:24.553Z,16.85
2023-05-16T01:00:51.360Z,14.18
2023-05-16T01:03:18.623Z,16.70
2023-05-16T01:05:46.672Z,18.40
2023-05-16T01:08:13.451Z,16.13
2023-05-16T01:10:50.842Z,15.70
2023-05-16T01:13:30.803Z,15.27
2023-05-16T01:16:04.845Z,15.00
2023-05-16T01:18:41.885Z,15.90
2023-05-16T01:21:17.077Z,18.05
2023-05-16T01:23:46.834Z,13.48
2023-05-16T01:26:23.696Z,17.75
2023-05-16T01:28:52.186Z,16.10
2023-05-16T01:31:20.175Z,20.73
2023-05-16T01:33:47.832Z,17.38
2023-05-16T01:36:22.501Z,13.38
2023-05-16T01:38:49.398Z,20.20
2023-05-16T01:41:31.353Z,11.80
2023-05-16T01:44:05.562Z,14.38
2023-05-16T01:46:40.562Z,15.80
2023-05-16T01:49:17.202Z,14.77
2023-05-16T01:51:56.085Z,13.25
2023-05-16T01:54:26.112Z,10.68
2023-05-16T01:56:56.044Z,16.45
2023-05-16T01:59:24.877Z,15.73
2023-05-16T02:01:54.800Z,15.07
2023-05-16T02:04:22.414Z,16.60
2023-05-16T02:06:49.202Z,16.15
2023-05-16T02:09:16.220Z,14.98
2023-05-16T02:11:43.534Z,17.83
2023-05-16T02:14:10.338Z,14.40
2023-05-16T02:16:38.893Z,12.60
2023-05-16T02:19:06.135Z,16.20
2023-05-16T02:21:32.919Z,16.85
2023-05-16T02:23:59.601Z,13.40
2023-05-16T02:26:26.389Z,16.20
2023-05-16T02:28:54.311Z,13.18
2023-05-16T02:31:31.558Z,14.20
2023-05-16T02:33:59.894Z,13.98
2023-05-16T02:36:27.326Z,17.20
2023-05-16T02:38:54.237Z,15.82
2023-05-16T02:41:22.307Z,19.42
2023-05-16T02:43:49.491Z,17.10
2023-05-16T02:46:27.894Z,12.32
2023-05-16T02:48:55.265Z,11.65
2023-05-16T02:51:23.669Z,14.07
2023-05-16T02:53:51.068Z,11.82
2023-05-16T02:56:18.668Z,14.85
2023-05-16T02:58:48.230Z,16.75
2023-05-16T03:01:15.776Z,14.48
2023-05-16T03:03:42.840Z,12.95
2023-05-16T03:06:09.684Z,13.95
2023-05-16T03:08:36.747Z,13.07
2023-05-16T03:11:03.507Z,16.95
2023-05-16T03:13:30.329Z,15.25
2023-05-16T03:15:57.043Z,15.07
2023-05-16T03:18:23.944Z,15.20
2023-05-16T03:20:53.005Z,15.95
2023-05-16T03:23:21.010Z,17.85
2023-05-16T03:25:48.172Z,15.45
2023-05-16T03:28:16.678Z,13.55
2023-05-16T03:30:43.415Z,15.95
2023-05-16T03:33:10.324Z,16.15
2023-05-16T03:35:37.475Z,12.32
2023-05-16T03:38:04.571Z,13.32
2023-05-16T03:40:31.422Z,8.63
2023-05-16T03:42:58.216Z,19.77
2023-05-16T03:45:25.166Z,13.60
2023-05-16T03:47:52.223Z,18.95
2023-05-16T03:50:19.051Z,10.77
2023-05-16T03:52:45.874Z,17.25
2023-05-16T03:55:14.483Z,11.82
2023-05-16T03:57:42.521Z,16.20
2023-05-16T04:00:10.979Z,9.25
2023-05-16T04:02:37.917Z,14.25
2023-05-16T04:05:05.271Z,11.80
2023-05-16T04:07:32.036Z,11.60
2023-05-16T04:09:58.824Z,13.00
2023-05-16T04:12:25.750Z,11.32
2023-05-16T04:14:52.450Z,16.80
2023-05-16T04:17:19.108Z,13.15
2023-05-16T04:19:46.116Z,12.32
2023-05-16T04:22:12.895Z,13.75
2023-05-16T04:24:39.669Z,13.27
2023-05-16T04:27:09.011Z,10.52
2023-05-16T04:29:36.346Z,10.93
2023-05-16T04:32:03.771Z,16.75
2023-05-16T04:34:30.961Z,10.88
2023-05-16T04:36:58.785Z,8.95
2023-05-16T04:39:25.773Z,11.93
2023-05-16T04:41:52.586Z,12.88
2023-05-16T04:44:19.962Z,15.27
2023-05-16T04:46:46.730Z,14.90
2023-05-16T04:49:14.000Z,15.10
2023-05-16T04:51:40.765Z,13.35
2023-05-16T04:54:08.830Z,13.43
2023-05-16T04:56:35.603Z,13.82
2023-05-16T04:59:04.220Z,8.68
2023-05-16T05:01:31.090Z,12.05
2023-05-16T05:03:57.932Z,10.02
2023-05-16T05:06:24.647Z,14.75
2023-05-16T05:08:51.498Z,10.63
2023-05-16T05:11:18.949Z,12.82
2023-05-16T05:13:45.766Z,11.50
2023-05-16T05:16:13.506Z,12.68
2023-05-16T05:18:40.540Z,9.98
2023-05-16T05:21:07.314Z,11.02
2023-05-16T05:23:34.974Z,11.68
2023-05-16T05:26:02.300Z,8.90
2023-05-16T05:28:29.018Z,7.72
2023-05-16T05:30:55.837Z,7.18
2023-05-16T05:33:27.769Z,9.50
2023-05-16T05:35:54.440Z,9.20
2023-05-16T05:38:21.771Z,12.70
2023-05-16T05:40:49.646Z,6.68
2023-05-16T05:43:16.478Z,11.43
2023-05-16T05:45:44.039Z,10.68
2023-05-16T05:48:11.608Z,12.45
2023-05-16T05:50:38.535Z,9.52
2023-05-16T05:53:05.430Z,9.80
2023-05-16T05:55:32.126Z,11.38
2023-05-16T05:57:58.841Z,10.90
2023-05-16T06:00:25.996Z,10.32
2023-05-16T06:02:53.037Z,11.13
2023-05-16T06:05:20.139Z,7.72
2023-05-16T06:07:46.871Z,8.80
2023-05-16T06:10:13.601Z,7.50
2023-05-16T06:12:40.314Z,7.47
2023-05-16T06:15:07.738Z,12.88
2023-05-16T06:17:34.564Z,9.52
2023-05-16T06:20:01.737Z,7.80
2023-05-16T06:22:28.465Z,7.78
2023-05-16T06:24:55.286Z,7.57
2023-05-16T06:27:22.586Z,9.73
2023-05-16T06:29:49.309Z,7.05
2023-05-16T06:32:16.043Z,10.63
2023-05-16T06:34:43.083Z,8.77
2023-05-16T06:37:09.832Z,5.60
2023-05-16T06:39:36.696Z,9.57
2023-05-16T06:42:03.549Z,8.45
2023-05-16T06:44:30.557Z,12.27
2023-05-16T06:46:57.480Z,9.63
2023-05-16T06:49:24.409Z,11.15
2023-05-16T06:51:51.163Z,9.57
2023-05-16T06:54:17.942Z,12.55
2023-05-16T06:56:45.616Z,9.27
2023-05-16T06:59:12.427Z,9.30
2023-05-16T07:01:39.268Z,8.43
2023-05-16T07:04:06.533Z,6.68
2023-05-16T07:06:33.563Z,8.52
2023-05-16T07:09:02.260Z,7.18
2023-05-16T07:11:29.154Z,7.05
2023-05-16T07:13:56.042Z,9.30
2023-05-16T07:16:22.871Z,7.30
2023-05-16T07:18:49.828Z,7.90
2023-05-16T07:21:16.826Z,6.63
2023-05-16T07:23:43.591Z,4.78
2023-05-16T07:26:10.528Z,8.43
2023-05-16T07:28:37.307Z,8.13
2023-05-16T07:31:04.183Z,14.38
2023-05-16T07:33:31.055Z,9.15
2023-05-16T07:36:07.885Z,13.27
2023-05-16T07:38:42.263Z,4.07
2023-05-16T07:41:09.313Z,7.32
2023-05-16T07:43:36.857Z,5.90
2023-05-16T07:46:04.095Z,9.02
2023-05-16T07:48:31.100Z,5.72
2023-05-16T07:50:57.886Z,9.50
2023-05-16T07:53:24.828Z,10.07
2023-05-16T07:55:51.800Z,8.43
2023-05-16T07:58:18.609Z,9.95
2023-05-16T08:00:45.790Z,10.25
2023-05-16T08:03:12.697Z,6.07
2023-05-16T08:05:39.982Z,5.63
2023-05-16T08:08:06.768Z,6.47
2023-05-16T08:10:33.604Z,7.75
2023-05-16T08:13:00.426Z,7.03
2023-05-16T08:15:31.155Z,8.38
2023-05-16T08:17:59.046Z,6.82
2023-05-16T08:20:26.595Z,6.72
2023-05-16T08:22:53.831Z,7.30
2023-05-16T08:25:21.329Z,7.00
2023-05-16T08:27:50.131Z,7.80
2023-05-16T08:30:17.159Z,7.72
2023-05-16T08:32:44.009Z,5.97
2023-05-16T08:35:11.353Z,8.32
2023-05-16T08:37:38.193Z,7.70
2023-05-16T08:40:08.329Z,7.10
2023-05-16T08:42:35.731Z,9.82
2023-05-16T08:45:03.188Z,10.48
2023-05-16T08:47:32.308Z,9.50
2023-05-16T08:50:01.205Z,7.72
2023-05-16T08:52:29.938Z,7.65
2023-05-16T08:57:33.890Z,9.02
2023-05-16T09:00:01.067Z,8.65
2023-05-16T09:02:31.034Z,10.30
2023-05-16T09:04:59.397Z,7.65
2023-05-16T09:07:26.552Z,9.80
2023-05-16T09:09:53.436Z,6.38
2023-05-16T09:12:20.681Z,6.53
2023-05-16T09:14:47.488Z,11.15
2023-05-16T09:17:18.484Z,6.55
2023-05-16T09:19:50.729Z,7.60
2023-05-16T09:22:18.226Z,7.38
2023-05-16T09:24:46.200Z,5.03
2023-05-16T09:27:16.185Z,6.65
2023-05-16T09:29:51.123Z,8.30
2023-05-16T09:32:18.616Z,9.30
2023-05-16T09:34:49.812Z,9.43
2023-05-16T09:37:16.552Z,8.35
2023-05-16T09:39:51.602Z,5.43
2023-05-16T09:42:20.325Z,5.53
2023-05-16T09:44:49.939Z,5.13
2023-05-16T09:47:21.411Z,6.88
2023-05-16T09:49:53.113Z,8.20
2023-05-16T09:52:20.167Z,7.80
2023-05-16T09:54:50.533Z,8.48
2023-05-16T09:57:21.637Z,5.38
2023-05-16T09:59:48.418Z,7.88
2023-05-16T10:02:15.989Z,6.25
2023-05-16T10:04:42.905Z,8.80
2023-05-16T10:07:10.723Z,7.95
2023-05-16T10:09:40.765Z,12.05
2023-05-16T10:12:11.418Z,11.38
2023-05-16T10:14:41.214Z,11.82
2023-05-16T10:17:10.838Z,13.02
2023-05-16T10:19:42.765Z,6.68
2023-05-16T10:22:11.928Z,5.18
2023-05-16T10:24:54.506Z,6.80
2023-05-16T10:27:21.895Z,4.32
2023-05-16T10:29:54.652Z,6.72
2023-05-16T10:32:24.495Z,8.23
2023-05-16T10:34:52.053Z,7.15
2023-05-16T10:37:18.972Z,7.70
2023-05-16T10:39:46.359Z,5.72
2023-05-16T10:42:18.236Z,4.95
2023-05-16T10:44:54.727Z,7.60
2023-05-16T10:47:29.396Z,5.00
2023-05-16T10:49:56.213Z,9.23
2023-05-16T10:52:34.025Z,5.03
2023-05-16T10:55:04.197Z,7.88
2023-05-16T10:57:33.698Z,5.43
2023-05-16T11:00:01.945Z,7.60
2023-05-16T11:02:34.050Z,5.82
2023-05-16T11:05:02.917Z,8.60
2023-05-16T11:07:34.796Z,4.65
2023-05-16T11:10:16.228Z,6.07
2023-05-16T11:12:44.975Z,5.00
2023-05-16T11:15:38.278Z,6.28
2023-05-16T11:18:10.664Z,5.28
2023-05-16T11:20:40.335Z,7.28
2023-05-16T11:23:22.217Z,6.53
2023-05-16T11:25:57.116Z,4.82
2023-05-16T11:28:27.468Z,5.75
2023-05-16T11:30:57.468Z,8.23
2023-05-16T11:33:25.201Z,6.50
2023-05-16T11:38:43.382Z,7.78
2023-05-16T11:41:10.601Z,6.63
2023-05-16T11:43:42.071Z,8.80
2023-05-16T11:46:13.143Z,5.53
2023-05-16T11:48:40.762Z,5.93
2023-05-16T11:51:07.835Z,7.88
2023-05-16T11:53:35.179Z,6.45
2023-05-16T11:56:02.326Z,5.75
2023-05-16T11:58:29.587Z,6.90
2023-05-16T12:00:57.117Z,6.13
2023-05-16T12:03:24.202Z,6.00
2023-05-16T12:05:55.161Z,10.65
2023-05-16T12:08:22.690Z,7.40
2023-05-16T12:10:51.611Z,5.60
2023-05-16T12:13:25.092Z,5.18
2023-05-16T12:15:55.849Z,5.10
2023-05-16T12:18:24.325Z,6.30
2023-05-16T12:20:52.339Z,7.15
2023-05-16T12:23:19.174Z,5.65
2023-05-16T12:25:47.668Z,6.40
2023-05-16T12:28:15.269Z,5.57
2023-05-16T12:30:44.216Z,4.93
2023-05-16T12:33:13.173Z,5.60
2023-05-16T12:35:41.905Z,8.82
2023-05-16T12:38:11.437Z,9.27
2023-05-16T12:40:39.652Z,6.03
2023-05-16T12:43:13.517Z,4.97
2023-05-16T12:45:41.010Z,4.95
2023-05-16T12:48:16.511Z,6.13
2023-05-16T12:50:43.313Z,4.07
2023-05-16T12:53:15.481Z,6.25
2023-05-16T12:55:43.602Z,6.05
2023-05-16T12:58:11.412Z,5.82
2023-05-16T13:00:39.132Z,4.22
2023-05-16T13:03:07.524Z,6.85
2023-05-16T13:05:36.231Z,6.63
2023-05-16T13:08:03.933Z,6.93
2023-05-16T13:10:30.967Z,4.65
2023-05-16T13:13:00.006Z,4.72
2023-05-16T13:15:27.638Z,5.20
2023-05-16T13:17:54.919Z,4.70
2023-05-16T13:20:21.889Z,6.60
2023-05-16T13:22:48.870Z,5.60
2023-05-16T13:25:16.075Z,6.93
2023-05-16T13:27:42.925Z,7.65
2023-05-16T13:30:10.039Z,5.50
2023-05-16T13:32:36.863Z,8.45
2023-05-16T13:35:04.130Z,3.70
2023-05-16T13:37:31.321Z,4.30
2023-05-16T13:39:58.204Z,7.22
2023-05-16T13:42:24.990Z,5.38
2023-05-16T13:44:52.155Z,6.78
2023-05-16T13:47:19.029Z,5.93
2023-05-16T13:49:46.181Z,4.90
2023-05-16T13:52:13.374Z,3.38
2023-05-16T13:54:42.934Z,4.22
2023-05-16T13:57:09.805Z,6.50
2023-05-16T14:02:06.317Z,5.25
2023-05-16T14:04:33.156Z,4.68
2023-05-16T14:06:59.923Z,4.28
2023-05-16T14:09:26.763Z,4.95
2023-05-16T14:11:53.521Z,4.70
2023-05-16T14:14:20.323Z,6.55
2023-05-16T14:16:47.310Z,4.43
2023-05-16T14:19:16.025Z,5.22
2023-05-16T14:21:45.153Z,5.55
2023-05-16T14:24:12.022Z,5.25
2023-05-16T14:26:38.811Z,3.38
2023-05-16T14:29:05.882Z,3.67
2023-05-16T14:31:32.896Z,2.50
2023-05-16T14:33:59.755Z,3.88
2023-05-16T14:36:26.626Z,3.10
2023-05-16T14:38:53.410Z,3.65
2023-05-16T14:41:20.234Z,3.28
2023-05-16T14:43:47.066Z,4.88
2023-05-16T14:46:14.215Z,4.75
2023-05-16T14:48:41.236Z,4.53
2023-05-16T14:51:08.103Z,4.63
2023-05-16T14:53:34.966Z,7.45
2023-05-16T14:56:02.954Z,4.50
2023-05-16T14:58:30.716Z,4.30
2023-05-16T15:00:58.021Z,5.85
2023-05-16T15:03:24.988Z,7.88
2023-05-16T15:05:52.697Z,4.75
2023-05-16T15:08:19.572Z,3.15
2023-05-16T15:10:46.501Z,7.65
2023-05-16T15:13:13.276Z,10.10
2023-05-16T15:15:40.166Z,9.00
2023-05-16T15:18:07.075Z,9.40
2023-05-16T15:20:33.997Z,7.25
2023-05-16T15:23:00.819Z,9.50
2023-05-16T15:25:28.290Z,11.65
2023-05-16T15:27:55.640Z,7.72
2023-05-16T15:30:22.476Z,9.60
2023-05-16T15:32:49.299Z,13.18
2023-05-16T15:35:16.398Z,8.63
2023-05-16T15:37:43.851Z,11.35
2023-05-16T15:40:11.409Z,12.30
2023-05-16T15:42:38.233Z,10.90
2023-05-16T15:45:06.001Z,12.07
2023-05-16T15:47:32.848Z,11.30
2023-05-16T15:49:59.695Z,10.13
2023-05-16T15:52:26.463Z,13.38
2023-05-16T15:54:53.483Z,7.60
2023-05-16T15:57:20.336Z,8.68
2023-05-16T15:59:47.139Z,9.45
2023-05-16T16:02:13.931Z,9.07
2023-05-16T16:04:40.750Z,8.98
2023-05-16T16:07:07.563Z,13.60
2023-05-16T16:09:34.385Z,9.93
2023-05-16T16:12:01.224Z,8.32
2023-05-16T16:14:28.060Z,10.02
2023-05-16T16:16:54.814Z,15.02
2023-05-16T16:19:21.692Z,11.25
2023-05-16T16:21:48.504Z,10.57
2023-05-16T16:24:15.834Z,17.45
2023-05-16T16:26:43.038Z,13.63
2023-05-16T16:29:09.867Z,10.75
2023-05-16T16:31:36.789Z,11.98
2023-05-16T16:34:03.672Z,13.13
2023-05-16T16:36:31.708Z,7.68
2023-05-16T16:38:59.372Z,10.02
2023-05-16T16:41:26.161Z,13.90
2023-05-16T16:43:53.001Z,12.57
2023-05-16T16:46:19.822Z,9.50
2023-05-16T16:48:46.619Z,15.05
2023-05-16T16:51:13.404Z,9.38
2023-05-16T16:53:41.036Z,12.50
2023-05-16T16:56:07.900Z,12.38
2023-05-16T16:58:34.646Z,11.73
2023-05-16T17:01:01.872Z,9.88
2023-05-16T17:03:28.787Z,14.23
2023-05-16T17:05:55.676Z,14.40
2023-05-16T17:08:22.459Z,10.32
2023-05-16T17:10:49.196Z,14.13
2023-05-16T17:13:17.532Z,11.55
2023-05-16T17:15:44.445Z,7.35
2023-05-16T17:18:11.281Z,9.20
2023-05-16T17:20:38.155Z,11.25
2023-05-16T17:23:05.489Z,9.95
2023-05-16T17:25:32.463Z,7.53
2023-05-16T17:27:59.282Z,9.40
2023-05-16T17:30:26.313Z,12.93
2023-05-16T17:32:53.994Z,9.85
2023-05-16T17:35:20.977Z,12.80
2023-05-16T17:37:47.862Z,9.82
2023-05-16T17:40:17.233Z,11.23
2023-05-16T17:42:45.099Z,17.73
2023-05-16T17:45:16.191Z,11.48
2023-05-16T17:47:43.305Z,11.93
2023-05-16T17:50:10.818Z,13.32
2023-05-16T17:52:39.462Z,11.73
2023-05-16T17:55:09.072Z,14.70
2023-05-16T17:57:36.043Z,12.32
2023-05-16T18:00:05.570Z,13.15
2023-05-16T18:02:32.918Z,10.93
2023-05-16T18:04:59.815Z,12.85
2023-05-16T18:07:27.111Z,12.23
2023-05-16T18:09:54.476Z,9.18
2023-05-16T18:12:21.623Z,12.50
2023-05-16T18:14:48.443Z,14.23
2023-05-16T18:17:15.288Z,12.57
2023-05-16T18:19:42.161Z,12.07
2023-05-16T18:22:10.138Z,11.18
2023-05-16T18:24:37.514Z,15.07
2023-05-16T18:27:04.515Z,10.05
2023-05-16T18:29:31.677Z,17.30
2023-05-16T18:31:59.966Z,13.20
2023-05-16T18:34:26.776Z,12.00
2023-05-16T18:36:53.521Z,11.10
2023-05-16T18:39:20.606Z,13.18
2023-05-16T18:41:48.392Z,10.20
2023-05-16T18:44:18.405Z,12.70
2023-05-16T18:46:48.964Z,11.45
2023-05-16T18:49:16.469Z,17.90
2023-05-16T18:51:44.130Z,10.05
2023-05-16T18:54:10.903Z,11.50
2023-05-16T18:56:37.717Z,14.07
2023-05-16T18:59:04.553Z,9.93
2023-05-16T19:01:31.370Z,14.73
2023-05-16T19:03:58.309Z,16.38
2023-05-16T19:06:25.555Z,11.82
2023-05-16T19:08:52.393Z,12.30
2023-05-16T19:11:19.535Z,12.63
2023-05-16T19:13:47.077Z,14.30
2023-05-16T19:16:14.337Z,12.77
2023-05-16T19:18:41.288Z,14.90
2023-05-16T19:21:08.704Z,14.20
2023-05-16T19:23:35.562Z,11.93
2023-05-16T19:26:02.383Z,12.52
2023-05-16T19:28:29.593Z,12.32
2023-05-16T19:30:56.597Z,13.75
2023-05-16T19:33:23.398Z,16.35
2023-05-16T19:35:52.777Z,11.73
2023-05-16T19:38:24.437Z,13.30
2023-05-16T19:43:18.897Z,10.00
2023-05-16T19:45:45.837Z,12.48
2023-05-16T19:48:12.683Z,12.75
2023-05-16T19:50:39.589Z,10.93
2023-05-16T19:53:06.395Z,15.02
2023-05-16T19:55:37.187Z,16.00
2023-05-16T19:58:04.921Z,13.00
2023-05-16T20:00:31.734Z,12.50
2023-05-16T20:02:58.721Z,10.95
2023-05-16T20:05:25.750Z,13.32
2023-05-16T20:07:55.964Z,13.05
2023-05-16T20:10:22.918Z,14.98
2023-05-16T20:12:50.104Z,14.80
2023-05-16T20:15:19.289Z,14.85
2023-05-16T20:17:46.250Z,13.27
2023-05-16T20:20:13.120Z,12.60
2023-05-16T20:22:41.418Z,11.32
2023-05-16T20:25:09.749Z,12.70
2023-05-16T20:27:36.695Z,13.98
2023-05-16T20:30:06.380Z,18.63
2023-05-16T20:32:33.458Z,13.32
2023-05-16T20:35:01.168Z,15.30
2023-05-16T20:37:27.941Z,13.85
2023-05-16T20:39:54.808Z,11.45
2023-05-16T20:42:21.969Z,15.45
2023-05-16T20:44:48.794Z,17.90
2023-05-16T20:47:17.026Z,19.58
2023-05-16T20:49:44.322Z,17.00
2023-05-16T20:52:11.209Z,11.77
2023-05-16T20:54:38.086Z,16.38
2023-05-16T20:57:05.341Z,17.77
2023-05-16T20:59:32.385Z,18.35
2023-05-16T21:01:59.426Z,18.15
2023-05-16T21:04:26.400Z,15.65
2023-05-16T21:06:53.269Z,19.00
2023-05-16T21:09:20.914Z,17.80
2023-05-16T21:11:47.901Z,17.52
2023-05-16T21:14:14.927Z,16.08
2023-05-16T21:16:41.868Z,15.00
2023-05-16T21:19:08.893Z,16.23
2023-05-16T21:21:35.788Z,11.05
2023-05-16T21:24:02.652Z,21.70
2023-05-16T21:26:29.369Z,15.23
2023-05-16T21:28:56.216Z,15.80
2023-05-16T21:31:23.393Z,17.25
2023-05-16T21:33:53.082Z,18.20
2023-05-16T21:36:22.852Z,19.63
2023-05-16T21:38:49.644Z,14.43
2023-05-16T21:41:18.046Z,15.02
2023-05-16T21:43:44.982Z,20.25
2023-05-16T21:46:11.865Z,15.27
2023-05-16T21:48:38.805Z,17.58
2023-05-16T21:51:05.724Z,12.25
2023-05-16T21:53:34.442Z,15.82
2023-05-16T21:56:01.274Z,14.80
2023-05-16T21:58:28.044Z,17.20
2023-05-16T22:00:54.790Z,15.38
2023-05-16T22:03:21.846Z,17.02
2023-05-16T22:05:48.756Z,18.08
2023-05-16T22:08:15.573Z,16.27
2023-05-16T22:10:42.812Z,20.20
2023-05-16T22:13:09.652Z,21.25
2023-05-16T22:15:36.416Z,17.17
2023-05-16T22:18:03.431Z,13.43
2023-05-16T22:20:30.390Z,19.55
2023-05-16T22:22:57.445Z,18.42
2023-05-16T22:25:24.349Z,14.07
2023-05-16T22:27:51.183Z,14.30
2023-05-16T22:30:18.355Z,17.92
2023-05-16T22:32:46.752Z,16.35
2023-05-16T22:35:14.133Z,21.20
2023-05-16T22:37:40.892Z,19.30
2023-05-16T22:40:09.371Z,15.38
2023-05-16T22:42:36.140Z,17.08
2023-05-16T22:45:03.886Z,20.20
2023-05-16T22:47:31.046Z,22.77
2023-05-16T22:49:57.918Z,15.43
2023-05-16T22:52:24.764Z,22.30
2023-05-16T22:54:51.519Z,17.00
2023-05-16T22:57:18.347Z,21.60
2023-05-16T22:59:45.184Z,18.33
2023-05-16T23:02:11.936Z,16.75
2023-05-16T23:04:38.768Z,16.85
2023-05-16T23:07:05.725Z,25.17
2023-05-16T23:09:32.606Z,19.55
2023-05-16T23:11:59.435Z,20.40
2023-05-16T23:14:26.265Z,21.70
2023-05-16T23:16:53.184Z,21.88
2023-05-16T23:19:20.243Z,23.27
2023-05-16T23:21:47.139Z,24.63
2023-05-16T23:24:13.881Z,24.02
2023-05-16T23:26:40.661Z,20.70
2023-05-16T23:29:07.490Z,23.05
2023-05-16T23:31:34.262Z,23.52
2023-05-16T23:34:01.109Z,20.73
2023-05-16T23:36:28.088Z,17.55
2023-05-16T23:38:54.818Z,18.60
2023-05-16T23:41:21.564Z,19.05
2023-05-16T23:43:48.493Z,20.95
2023-05-16T23:46:15.385Z,24.65
2023-05-16T23:48:42.306Z,17.92
2023-05-16T23:51:09.118Z,19.80
2023-05-16T23:53:35.950Z,23.83
2023-05-16T23:56:03.470Z,23.02
2023-05-16T23:58:30.255Z,17.85
